sensor_id;sensor_type;location;lat;lon;timestamp;P1;durP1;ratioP1;P2;durP2;ratioP2
5762;SDS011;2906;53.282;9.508;2023-04-01T00:00:15;24.45;;;6.55;;
5762;SDS011;2906;53.282;9.508;2023-04-01T00:01:16;21.13;;;6.03;;
5762;SDS011;2906;53.282;9.508;2023-04-01T00:02:19;18.83;;;5.93;;
5762;SDS011;2906;53.282;9.508;2023-04-01T00:03:21;21.50;;;6.55;;
5762;SDS011;2906;53.282;9.508;2023-04-01T00:04:23;28.17;;;6.93;;
5762;SDS011;2906;53.282;9.508;2023-04-01T00:05:24;25.55;;;6.13;;
5762;SDS011;2906;53.282;9.508;2023-04-01T00:06:27;20.42;;;5.78;;
5762;SDS011;2906;53.282;9.508;2023-04-01T00:07:28;24.45;;;6.53;;
5762;SDS011;2906;53.282;9.508;2023-04-01T00:08:31;18.70;;;5.80;;
5762;SDS011;2906;53.282;9.508;2023-04-01T00:09:32;26.48;;;5.80;;
5762;SDS011;2906;53.282;9.508;2023-04-01T00:10:35;16.98;;;5.15;;
5762;SDS011;2906;53.282;9.508;2023-04-01T00:11:36;19.33;;;6.00;;
5762;SDS011;2906;53.282;9.508;2023-04-01T00:12:38;19.15;;;5.63;;
5762;SDS011;2906;53.282;9.508;2023-04-01T00:13:40;24.08;;;5.40;;
5762;SDS011;2906;53.282;9.508;2023-04-01T00:14:44;17.75;;;5.55;;
5762;SDS011;2906;53.282;9.508;2023-04-01T00:15:45;19.95;;;6.13;;
5762;SDS011;2906;53.282;9.508;2023-04-01T00:16:48;23.45;;;4.97;;
5762;SDS011;2906;53.282;9.508;2023-04-01T00:17:49;19.02;;;5.90;;
5762;SDS011;2906;53.282;9.508;2023-04-01T00:18:51;22.35;;;5.80;;
5762;SDS011;2906;53.282;9.508;2023-04-01T00:19:54;18.23;;;5.30;;
5762;SDS011;2906;53.282;9.508;2023-04-01T00:20:56;23.50;;;6.20;;
5762;SDS011;2906;53.282;9.508;2023-04-01T00:21:58;20.15;;;5.30;;
5762;SDS011;2906;53.282;9.508;2023-04-01T00:23:00;22.85;;;5.53;;
5762;SDS011;2906;53.282;9.508;2023-04-01T00:24:02;16.60;;;4.30;;
5762;SDS011;2906;53.282;9.508;2023-04-01T00:25:04;23.95;;;6.00;;
5762;SDS011;2906;53.282;9.508;2023-04-01T00:26:06;18.88;;;5.47;;
5762;SDS011;2906;53.282;9.508;2023-04-01T00:27:08;20.10;;;5.70;;
5762;SDS011;2906;53.282;9.508;2023-04-01T00:28:09;18.60;;;5.53;;
5762;SDS011;2906;53.282;9.508;2023-04-01T00:29:11;18.30;;;5.55;;
5762;SDS011;2906;53.282;9.508;2023-04-01T00:30:14;26.33;;;6.10;;
5762;SDS011;2906;53.282;9.508;2023-04-01T00:31:16;22.08;;;5.70;;
5762;SDS011;2906;53.282;9.508;2023-04-01T00:32:18;19.73;;;5.60;;
5762;SDS011;2906;53.282;9.508;2023-04-01T00:33:20;17.23;;;5.22;;
5762;SDS011;2906;53.282;9.508;2023-04-01T00:34:22;23.20;;;5.78;;
5762;SDS011;2906;53.282;9.508;2023-04-01T00:35:24;19.05;;;5.65;;
5762;SDS011;2906;53.282;9.508;2023-04-01T00:36:26;25.80;;;6.20;;
5762;SDS011;2906;53.282;9.508;2023-04-01T00:37:28;18.90;;;5.85;;
5762;SDS011;2906;53.282;9.508;2023-04-01T00:38:30;21.30;;;5.90;;
5762;SDS011;2906;53.282;9.508;2023-04-01T00:39:31;20.75;;;6.18;;
5762;SDS011;2906;53.282;9.508;2023-04-01T00:40:34;19.35;;;5.45;;
5762;SDS011;2906;53.282;9.508;2023-04-01T00:41:36;19.17;;;6.20;;
5762;SDS011;2906;53.282;9.508;2023-04-01T00:42:38;22.67;;;5.97;;
5762;SDS011;2906;53.282;9.508;2023-04-01T00:43:40;20.50;;;6.13;;
5762;SDS011;2906;53.282;9.508;2023-04-01T00:44:42;21.10;;;5.85;;
5762;SDS011;2906;53.282;9.508;2023-04-01T00:45:45;19.90;;;5.88;;
5762;SDS011;2906;53.282;9.508;2023-04-01T00:46:48;18.80;;;5.65;;
5762;SDS011;2906;53.282;9.508;2023-04-01T00:47:49;31.02;;;6.10;;
5762;SDS011;2906;53.282;9.508;2023-04-01T00:48:53;21.40;;;6.82;;
5762;SDS011;2906;53.282;9.508;2023-04-01T00:49:56;19.63;;;6.60;;
5762;SDS011;2906;53.282;9.508;2023-04-01T00:50:58;23.63;;;5.55;;
5762;SDS011;2906;53.282;9.508;2023-04-01T00:52:02;26.85;;;6.82;;
5762;SDS011;2906;53.282;9.508;2023-04-01T00:53:04;19.92;;;6.32;;
5762;SDS011;2906;53.282;9.508;2023-04-01T00:54:07;21.90;;;6.93;;
5762;SDS011;2906;53.282;9.508;2023-04-01T00:55:10;23.35;;;5.95;;
5762;SDS011;2906;53.282;9.508;2023-04-01T00:56:13;22.15;;;6.72;;
5762;SDS011;2906;53.282;9.508;2023-04-01T00:57:16;23.25;;;6.70;;
5762;SDS011;2906;53.282;9.508;2023-04-01T00:58:20;23.92;;;6.97;;
5762;SDS011;2906;53.282;9.508;2023-04-01T00:59:23;22.80;;;6.90;;
5762;SDS011;2906;53.282;9.508;2023-04-01T01:00:26;21.35;;;6.45;;
5762;SDS011;2906;53.282;9.508;2023-04-01T01:01:29;21.10;;;6.10;;
5762;SDS011;2906;53.282;9.508;2023-04-01T01:02:31;18.20;;;6.80;;
5762;SDS011;2906;53.282;9.508;2023-04-01T01:03:34;22.50;;;6.80;;
5762;SDS011;2906;53.282;9.508;2023-04-01T01:04:36;19.27;;;6.60;;
5762;SDS011;2906;53.282;9.508;2023-04-01T01:05:40;24.10;;;7.00;;
5762;SDS011;2906;53.282;9.508;2023-04-01T01:06:46;20.58;;;6.55;;
5762;SDS011;2906;53.282;9.508;2023-04-01T01:07:53;22.05;;;7.30;;
5762;SDS011;2906;53.282;9.508;2023-04-01T01:09:02;24.70;;;6.88;;
5762;SDS011;2906;53.282;9.508;2023-04-01T01:10:08;23.50;;;7.40;;
5762;SDS011;2906;53.282;9.508;2023-04-01T01:11:11;21.23;;;6.95;;
5762;SDS011;2906;53.282;9.508;2023-04-01T01:12:14;23.25;;;6.80;;
5762;SDS011;2906;53.282;9.508;2023-04-01T01:13:18;26.85;;;7.25;;
5762;SDS011;2906;53.282;9.508;2023-04-01T01:14:24;17.88;;;6.57;;
5762;SDS011;2906;53.282;9.508;2023-04-01T01:15:29;23.05;;;6.80;;
5762;SDS011;2906;53.282;9.508;2023-04-01T01:16:34;22.63;;;6.78;;
5762;SDS011;2906;53.282;9.508;2023-04-01T01:17:40;26.30;;;7.25;;
5762;SDS011;2906;53.282;9.508;2023-04-01T01:18:47;23.40;;;7.93;;
5762;SDS011;2906;53.282;9.508;2023-04-01T01:19:54;22.90;;;7.05;;
5762;SDS011;2906;53.282;9.508;2023-04-01T01:21:05;27.98;;;8.38;;
5762;SDS011;2906;53.282;9.508;2023-04-01T01:22:11;24.10;;;6.70;;
5762;SDS011;2906;53.282;9.508;2023-04-01T01:24:39;18.90;;;7.28;;
5762;SDS011;2906;53.282;9.508;2023-04-01T01:25:44;22.52;;;6.60;;
5762;SDS011;2906;53.282;9.508;2023-04-01T01:26:52;22.25;;;6.90;;
5762;SDS011;2906;53.282;9.508;2023-04-01T01:27:57;24.08;;;7.40;;
5762;SDS011;2906;53.282;9.508;2023-04-01T01:29:01;24.27;;;7.82;;
5762;SDS011;2906;53.282;9.508;2023-04-01T01:30:14;18.50;;;6.65;;
5762;SDS011;2906;53.282;9.508;2023-04-01T01:31:18;23.95;;;7.68;;
5762;SDS011;2906;53.282;9.508;2023-04-01T01:32:27;25.63;;;6.72;;
5762;SDS011;2906;53.282;9.508;2023-04-01T01:33:36;19.88;;;7.13;;
5762;SDS011;2906;53.282;9.508;2023-04-01T01:34:43;21.88;;;7.07;;
5762;SDS011;2906;53.282;9.508;2023-04-01T01:35:49;19.73;;;7.10;;
5762;SDS011;2906;53.282;9.508;2023-04-01T01:36:53;20.80;;;6.60;;
5762;SDS011;2906;53.282;9.508;2023-04-01T01:37:57;21.58;;;7.28;;
5762;SDS011;2906;53.282;9.508;2023-04-01T01:39:00;24.05;;;6.75;;
5762;SDS011;2906;53.282;9.508;2023-04-01T01:40:03;22.55;;;7.55;;
5762;SDS011;2906;53.282;9.508;2023-04-01T01:41:06;26.63;;;7.57;;
5762;SDS011;2906;53.282;9.508;2023-04-01T01:42:09;24.35;;;7.47;;
5762;SDS011;2906;53.282;9.508;2023-04-01T01:43:14;20.48;;;7.63;;
5762;SDS011;2906;53.282;9.508;2023-04-01T01:44:17;23.33;;;7.07;;
5762;SDS011;2906;53.282;9.508;2023-04-01T01:45:20;27.33;;;7.55;;
5762;SDS011;2906;53.282;9.508;2023-04-01T01:46:22;24.35;;;7.97;;
5762;SDS011;2906;53.282;9.508;2023-04-01T01:47:25;20.42;;;7.72;;
5762;SDS011;2906;53.282;9.508;2023-04-01T01:48:28;24.35;;;7.47;;
5762;SDS011;2906;53.282;9.508;2023-04-01T01:49:32;29.50;;;6.93;;
5762;SDS011;2906;53.282;9.508;2023-04-01T01:50:34;22.17;;;6.93;;
5762;SDS011;2906;53.282;9.508;2023-04-01T01:51:38;21.70;;;7.22;;
5762;SDS011;2906;53.282;9.508;2023-04-01T01:52:40;23.42;;;6.72;;
5762;SDS011;2906;53.282;9.508;2023-04-01T01:53:42;23.00;;;7.40;;
5762;SDS011;2906;53.282;9.508;2023-04-01T01:54:47;23.40;;;8.05;;
5762;SDS011;2906;53.282;9.508;2023-04-01T01:55:49;24.25;;;7.70;;
5762;SDS011;2906;53.282;9.508;2023-04-01T01:56:51;26.08;;;6.90;;
5762;SDS011;2906;53.282;9.508;2023-04-01T01:57:57;24.15;;;7.30;;
5762;SDS011;2906;53.282;9.508;2023-04-01T01:59:00;20.65;;;7.53;;
5762;SDS011;2906;53.282;9.508;2023-04-01T02:00:06;23.90;;;8.10;;
5762;SDS011;2906;53.282;9.508;2023-04-01T02:01:13;20.95;;;7.88;;
5762;SDS011;2906;53.282;9.508;2023-04-01T02:02:16;26.48;;;7.63;;
5762;SDS011;2906;53.282;9.508;2023-04-01T02:03:18;21.73;;;8.02;;
5762;SDS011;2906;53.282;9.508;2023-04-01T02:04:21;22.40;;;7.25;;
5762;SDS011;2906;53.282;9.508;2023-04-01T02:05:24;21.77;;;7.50;;
5762;SDS011;2906;53.282;9.508;2023-04-01T02:06:28;18.75;;;7.20;;
5762;SDS011;2906;53.282;9.508;2023-04-01T02:07:31;25.75;;;8.00;;
5762;SDS011;2906;53.282;9.508;2023-04-01T02:08:36;21.33;;;7.60;;
5762;SDS011;2906;53.282;9.508;2023-04-01T02:09:38;23.35;;;7.60;;
5762;SDS011;2906;53.282;9.508;2023-04-01T02:10:41;32.30;;;8.63;;
5762;SDS011;2906;53.282;9.508;2023-04-01T02:11:46;21.27;;;8.25;;
5762;SDS011;2906;53.282;9.508;2023-04-01T02:12:50;23.83;;;7.80;;
5762;SDS011;2906;53.282;9.508;2023-04-01T02:13:52;21.10;;;8.27;;
5762;SDS011;2906;53.282;9.508;2023-04-01T02:14:57;20.98;;;8.20;;
5762;SDS011;2906;53.282;9.508;2023-04-01T02:16:01;23.65;;;8.25;;
5762;SDS011;2906;53.282;9.508;2023-04-01T02:17:08;23.30;;;7.82;;
5762;SDS011;2906;53.282;9.508;2023-04-01T02:18:10;22.98;;;7.75;;
5762;SDS011;2906;53.282;9.508;2023-04-01T02:19:14;21.08;;;7.10;;
5762;SDS011;2906;53.282;9.508;2023-04-01T02:20:22;25.90;;;7.65;;
5762;SDS011;2906;53.282;9.508;2023-04-01T02:21:26;23.13;;;7.85;;
5762;SDS011;2906;53.282;9.508;2023-04-01T02:22:32;24.48;;;7.45;;
5762;SDS011;2906;53.282;9.508;2023-04-01T02:23:35;21.77;;;7.10;;
5762;SDS011;2906;53.282;9.508;2023-04-01T02:24:37;21.25;;;7.15;;
5762;SDS011;2906;53.282;9.508;2023-04-01T02:25:41;21.83;;;8.20;;
5762;SDS011;2906;53.282;9.508;2023-04-01T02:26:44;23.05;;;7.80;;
5762;SDS011;2906;53.282;9.508;2023-04-01T02:27:46;20.77;;;7.97;;
5762;SDS011;2906;53.282;9.508;2023-04-01T02:28:48;18.73;;;7.28;;
5762;SDS011;2906;53.282;9.508;2023-04-01T02:29:51;23.95;;;7.82;;
5762;SDS011;2906;53.282;9.508;2023-04-01T02:30:53;22.63;;;7.90;;
5762;SDS011;2906;53.282;9.508;2023-04-01T02:31:55;23.70;;;7.53;;
5762;SDS011;2906;53.282;9.508;2023-04-01T02:32:58;20.42;;;7.47;;
5762;SDS011;2906;53.282;9.508;2023-04-01T02:34:00;21.83;;;7.13;;
5762;SDS011;2906;53.282;9.508;2023-04-01T02:35:02;18.30;;;7.38;;
5762;SDS011;2906;53.282;9.508;2023-04-01T02:36:06;23.40;;;8.25;;
5762;SDS011;2906;53.282;9.508;2023-04-01T02:37:08;21.05;;;7.20;;
5762;SDS011;2906;53.282;9.508;2023-04-01T02:38:11;21.23;;;7.72;;
5762;SDS011;2906;53.282;9.508;2023-04-01T02:39:15;22.70;;;7.30;;
5762;SDS011;2906;53.282;9.508;2023-04-01T02:40:17;18.05;;;6.43;;
5762;SDS011;2906;53.282;9.508;2023-04-01T02:41:19;20.55;;;7.72;;
5762;SDS011;2906;53.282;9.508;2023-04-01T02:42:21;21.45;;;6.95;;
5762;SDS011;2906;53.282;9.508;2023-04-01T02:43:23;27.08;;;7.63;;
5762;SDS011;2906;53.282;9.508;2023-04-01T02:44:26;21.05;;;7.30;;
5762;SDS011;2906;53.282;9.508;2023-04-01T02:45:28;20.90;;;6.82;;
5762;SDS011;2906;53.282;9.508;2023-04-01T02:46:29;19.08;;;6.90;;
5762;SDS011;2906;53.282;9.508;2023-04-01T02:47:32;20.50;;;7.85;;
5762;SDS011;2906;53.282;9.508;2023-04-01T02:48:34;21.00;;;7.68;;
5762;SDS011;2906;53.282;9.508;2023-04-01T02:49:36;22.10;;;7.50;;
5762;SDS011;2906;53.282;9.508;2023-04-01T02:50:38;19.27;;;7.35;;
5762;SDS011;2906;53.282;9.508;2023-04-01T02:51:40;21.33;;;6.55;;
5762;SDS011;2906;53.282;9.508;2023-04-01T02:52:41;18.02;;;6.40;;
5762;SDS011;2906;53.282;9.508;2023-04-01T02:53:46;21.85;;;7.10;;
5762;SDS011;2906;53.282;9.508;2023-04-01T02:54:48;20.52;;;6.75;;
5762;SDS011;2906;53.282;9.508;2023-04-01T02:55:50;20.10;;;6.60;;
5762;SDS011;2906;53.282;9.508;2023-04-01T02:56:52;20.60;;;6.88;;
5762;SDS011;2906;53.282;9.508;2023-04-01T02:57:54;19.77;;;7.20;;
5762;SDS011;2906;53.282;9.508;2023-04-01T02:58:55;23.23;;;6.90;;
5762;SDS011;2906;53.282;9.508;2023-04-01T02:59:58;17.88;;;5.55;;
5762;SDS011;2906;53.282;9.508;2023-04-01T03:00:59;24.95;;;6.68;;
5762;SDS011;2906;53.282;9.508;2023-04-01T03:02:01;20.23;;;6.85;;
5762;SDS011;2906;53.282;9.508;2023-04-01T03:03:03;19.80;;;6.75;;
5762;SDS011;2906;53.282;9.508;2023-04-01T03:04:05;18.33;;;6.30;;
5762;SDS011;2906;53.282;9.508;2023-04-01T03:05:07;24.35;;;6.28;;
5762;SDS011;2906;53.282;9.508;2023-04-01T03:06:10;20.50;;;5.95;;
5762;SDS011;2906;53.282;9.508;2023-04-01T03:07:12;17.88;;;6.38;;
5762;SDS011;2906;53.282;9.508;2023-04-01T03:08:14;24.67;;;7.75;;
5762;SDS011;2906;53.282;9.508;2023-04-01T03:09:17;20.40;;;6.88;;
5762;SDS011;2906;53.282;9.508;2023-04-01T03:10:19;20.75;;;6.68;;
5762;SDS011;2906;53.282;9.508;2023-04-01T03:11:20;18.23;;;6.85;;
5762;SDS011;2906;53.282;9.508;2023-04-01T03:12:22;21.33;;;7.05;;
5762;SDS011;2906;53.282;9.508;2023-04-01T03:13:24;18.95;;;6.88;;
5762;SDS011;2906;53.282;9.508;2023-04-01T03:14:26;22.55;;;7.20;;
5762;SDS011;2906;53.282;9.508;2023-04-01T03:15:28;20.40;;;7.45;;
5762;SDS011;2906;53.282;9.508;2023-04-01T03:16:30;25.42;;;7.00;;
5762;SDS011;2906;53.282;9.508;2023-04-01T03:17:31;22.17;;;7.00;;
5762;SDS011;2906;53.282;9.508;2023-04-01T03:18:33;26.65;;;7.50;;
5762;SDS011;2906;53.282;9.508;2023-04-01T03:19:35;20.65;;;7.25;;
5762;SDS011;2906;53.282;9.508;2023-04-01T03:20:37;24.45;;;7.85;;
5762;SDS011;2906;53.282;9.508;2023-04-01T03:21:38;25.67;;;6.90;;
5762;SDS011;2906;53.282;9.508;2023-04-01T03:22:40;21.15;;;7.22;;
5762;SDS011;2906;53.282;9.508;2023-04-01T03:23:41;20.48;;;6.80;;
5762;SDS011;2906;53.282;9.508;2023-04-01T03:24:45;21.33;;;6.60;;
5762;SDS011;2906;53.282;9.508;2023-04-01T03:25:47;20.58;;;6.63;;
5762;SDS011;2906;53.282;9.508;2023-04-01T03:26:49;23.25;;;6.80;;
5762;SDS011;2906;53.282;9.508;2023-04-01T03:27:51;22.58;;;6.85;;
5762;SDS011;2906;53.282;9.508;2023-04-01T03:28:53;21.60;;;7.22;;
5762;SDS011;2906;53.282;9.508;2023-04-01T03:29:55;21.55;;;7.05;;
5762;SDS011;2906;53.282;9.508;2023-04-01T03:30:57;21.05;;;7.25;;
5762;SDS011;2906;53.282;9.508;2023-04-01T03:31:58;20.25;;;6.10;;
5762;SDS011;2906;53.282;9.508;2023-04-01T03:33:01;18.73;;;6.10;;
5762;SDS011;2906;53.282;9.508;2023-04-01T03:34:02;17.23;;;6.25;;
5762;SDS011;2906;53.282;9.508;2023-04-01T03:35:05;23.15;;;6.07;;
5762;SDS011;2906;53.282;9.508;2023-04-01T03:36:06;19.27;;;6.47;;
5762;SDS011;2906;53.282;9.508;2023-04-01T03:37:08;19.58;;;5.85;;
5762;SDS011;2906;53.282;9.508;2023-04-01T03:38:11;17.17;;;5.75;;
5762;SDS011;2906;53.282;9.508;2023-04-01T03:39:12;18.30;;;5.70;;
5762;SDS011;2906;53.282;9.508;2023-04-01T03:40:20;17.73;;;6.65;;
5762;SDS011;2906;53.282;9.508;2023-04-01T03:41:21;19.50;;;6.22;;
5762;SDS011;2906;53.282;9.508;2023-04-01T03:42:24;18.83;;;6.32;;
5762;SDS011;2906;53.282;9.508;2023-04-01T03:43:25;15.85;;;5.40;;
5762;SDS011;2906;53.282;9.508;2023-04-01T03:44:30;18.98;;;6.07;;
5762;SDS011;2906;53.282;9.508;2023-04-01T03:45:31;17.20;;;5.72;;
5762;SDS011;2906;53.282;9.508;2023-04-01T03:46:33;18.88;;;5.90;;
5762;SDS011;2906;53.282;9.508;2023-04-01T03:47:35;16.25;;;5.90;;
5762;SDS011;2906;53.282;9.508;2023-04-01T03:48:37;17.70;;;5.72;;
5762;SDS011;2906;53.282;9.508;2023-04-01T03:49:38;19.38;;;5.68;;
5762;SDS011;2906;53.282;9.508;2023-04-01T03:50:41;20.23;;;6.35;;
5762;SDS011;2906;53.282;9.508;2023-04-01T03:51:42;17.80;;;5.85;;
5762;SDS011;2906;53.282;9.508;2023-04-01T03:52:45;22.83;;;6.60;;
5762;SDS011;2906;53.282;9.508;2023-04-01T03:53:46;19.42;;;6.20;;
5762;SDS011;2906;53.282;9.508;2023-04-01T03:54:49;19.52;;;6.20;;
5762;SDS011;2906;53.282;9.508;2023-04-01T03:55:51;18.90;;;6.55;;
5762;SDS011;2906;53.282;9.508;2023-04-01T03:56:53;18.30;;;5.90;;
5762;SDS011;2906;53.282;9.508;2023-04-01T03:57:55;20.42;;;5.35;;
5762;SDS011;2906;53.282;9.508;2023-04-01T03:58:57;18.40;;;5.32;;
5762;SDS011;2906;53.282;9.508;2023-04-01T03:59:59;18.73;;;5.75;;
5762;SDS011;2906;53.282;9.508;2023-04-01T04:01:01;17.60;;;5.53;;
5762;SDS011;2906;53.282;9.508;2023-04-01T04:02:02;16.95;;;5.85;;
5762;SDS011;2906;53.282;9.508;2023-04-01T04:03:05;17.35;;;5.45;;
5762;SDS011;2906;53.282;9.508;2023-04-01T04:04:06;18.60;;;5.85;;
5762;SDS011;2906;53.282;9.508;2023-04-01T04:05:09;19.05;;;5.60;;
5762;SDS011;2906;53.282;9.508;2023-04-01T04:06:11;16.27;;;5.05;;
5762;SDS011;2906;53.282;9.508;2023-04-01T04:07:13;18.70;;;5.82;;
5762;SDS011;2906;53.282;9.508;2023-04-01T04:08:15;16.63;;;5.93;;
5762;SDS011;2906;53.282;9.508;2023-04-01T04:09:17;18.95;;;6.65;;
5762;SDS011;2906;53.282;9.508;2023-04-01T04:10:18;22.85;;;6.80;;
5762;SDS011;2906;53.282;9.508;2023-04-01T04:11:23;18.92;;;6.60;;
5762;SDS011;2906;53.282;9.508;2023-04-01T04:12:25;16.75;;;6.18;;
5762;SDS011;2906;53.282;9.508;2023-04-01T04:13:27;18.63;;;6.80;;
5762;SDS011;2906;53.282;9.508;2023-04-01T04:14:29;18.08;;;6.30;;
5762;SDS011;2906;53.282;9.508;2023-04-01T04:15:31;18.00;;;6.10;;
5762;SDS011;2906;53.282;9.508;2023-04-01T04:16:34;18.67;;;7.15;;
5762;SDS011;2906;53.282;9.508;2023-04-01T04:17:37;22.33;;;7.20;;
5762;SDS011;2906;53.282;9.508;2023-04-01T04:18:38;22.15;;;7.55;;
5762;SDS011;2906;53.282;9.508;2023-04-01T04:19:41;20.92;;;6.70;;
5762;SDS011;2906;53.282;9.508;2023-04-01T04:20:43;19.73;;;6.93;;
5762;SDS011;2906;53.282;9.508;2023-04-01T04:21:47;23.45;;;7.50;;
5762;SDS011;2906;53.282;9.508;2023-04-01T04:22:49;19.52;;;7.53;;
5762;SDS011;2906;53.282;9.508;2023-04-01T04:23:50;22.67;;;7.90;;
5762;SDS011;2906;53.282;9.508;2023-04-01T04:24:53;22.52;;;7.90;;
5762;SDS011;2906;53.282;9.508;2023-04-01T04:25:55;20.77;;;7.45;;
5762;SDS011;2906;53.282;9.508;2023-04-01T04:26:58;20.40;;;7.72;;
5762;SDS011;2906;53.282;9.508;2023-04-01T04:28:00;19.50;;;6.80;;
5762;SDS011;2906;53.282;9.508;2023-04-01T04:29:02;21.27;;;7.68;;
5762;SDS011;2906;53.282;9.508;2023-04-01T04:30:04;23.27;;;7.45;;
5762;SDS011;2906;53.282;9.508;2023-04-01T04:31:07;19.40;;;7.25;;
5762;SDS011;2906;53.282;9.508;2023-04-01T04:32:08;19.90;;;7.57;;
5762;SDS011;2906;53.282;9.508;2023-04-01T04:33:10;19.27;;;7.13;;
5762;SDS011;2906;53.282;9.508;2023-04-01T04:34:12;22.10;;;7.70;;
5762;SDS011;2906;53.282;9.508;2023-04-01T04:35:14;21.75;;;7.57;;
5762;SDS011;2906;53.282;9.508;2023-04-01T04:36:15;24.33;;;7.47;;
5762;SDS011;2906;53.282;9.508;2023-04-01T04:37:18;23.42;;;7.30;;
5762;SDS011;2906;53.282;9.508;2023-04-01T04:38:19;20.50;;;6.95;;
5762;SDS011;2906;53.282;9.508;2023-04-01T04:39:21;20.10;;;7.28;;
5762;SDS011;2906;53.282;9.508;2023-04-01T04:40:23;24.75;;;7.50;;
5762;SDS011;2906;53.282;9.508;2023-04-01T04:41:25;19.25;;;6.70;;
5762;SDS011;2906;53.282;9.508;2023-04-01T04:42:27;20.45;;;7.50;;
5762;SDS011;2906;53.282;9.508;2023-04-01T04:43:29;22.38;;;7.50;;
5762;SDS011;2906;53.282;9.508;2023-04-01T04:44:31;26.25;;;7.70;;
5762;SDS011;2906;53.282;9.508;2023-04-01T04:45:33;25.67;;;8.23;;
5762;SDS011;2906;53.282;9.508;2023-04-01T04:46:34;19.17;;;7.15;;
5762;SDS011;2906;53.282;9.508;2023-04-01T04:47:40;20.88;;;7.88;;
5762;SDS011;2906;53.282;9.508;2023-04-01T04:48:41;23.83;;;7.80;;
5762;SDS011;2906;53.282;9.508;2023-04-01T04:49:44;20.52;;;7.32;;
5762;SDS011;2906;53.282;9.508;2023-04-01T04:50:46;22.40;;;7.88;;
5762;SDS011;2906;53.282;9.508;2023-04-01T04:51:49;21.13;;;7.40;;
5762;SDS011;2906;53.282;9.508;2023-04-01T04:52:50;23.88;;;7.40;;
5762;SDS011;2906;53.282;9.508;2023-04-01T04:53:52;28.10;;;7.93;;
5762;SDS011;2906;53.282;9.508;2023-04-01T04:54:54;26.73;;;8.05;;
5762;SDS011;2906;53.282;9.508;2023-04-01T04:55:57;21.77;;;7.68;;
5762;SDS011;2906;53.282;9.508;2023-04-01T04:56:59;22.23;;;7.82;;
5762;SDS011;2906;53.282;9.508;2023-04-01T04:58:02;24.45;;;7.97;;
5762;SDS011;2906;53.282;9.508;2023-04-01T04:59:04;26.08;;;8.18;;
5762;SDS011;2906;53.282;9.508;2023-04-01T05:00:07;23.17;;;8.32;;
5762;SDS011;2906;53.282;9.508;2023-04-01T05:01:11;21.88;;;8.05;;
5762;SDS011;2906;53.282;9.508;2023-04-01T05:02:12;27.40;;;7.97;;
5762;SDS011;2906;53.282;9.508;2023-04-01T05:03:14;23.83;;;8.20;;
5762;SDS011;2906;53.282;9.508;2023-04-01T05:04:16;26.25;;;7.53;;
5762;SDS011;2906;53.282;9.508;2023-04-01T05:05:18;19.65;;;7.75;;
5762;SDS011;2906;53.282;9.508;2023-04-01T05:06:19;18.85;;;7.88;;
5762;SDS011;2906;53.282;9.508;2023-04-01T05:07:22;24.75;;;8.07;;
5762;SDS011;2906;53.282;9.508;2023-04-01T05:08:23;24.05;;;8.13;;
5762;SDS011;2906;53.282;9.508;2023-04-01T05:09:25;20.15;;;8.38;;
5762;SDS011;2906;53.282;9.508;2023-04-01T05:10:27;24.05;;;7.53;;
5762;SDS011;2906;53.282;9.508;2023-04-01T05:11:29;24.10;;;7.45;;
5762;SDS011;2906;53.282;9.508;2023-04-01T05:12:30;20.90;;;7.95;;
5762;SDS011;2906;53.282;9.508;2023-04-01T05:13:37;20.52;;;7.90;;
5762;SDS011;2906;53.282;9.508;2023-04-01T05:14:38;20.60;;;7.15;;
5762;SDS011;2906;53.282;9.508;2023-04-01T05:15:40;21.42;;;8.05;;
5762;SDS011;2906;53.282;9.508;2023-04-01T05:16:42;24.10;;;8.23;;
5762;SDS011;2906;53.282;9.508;2023-04-01T05:17:44;24.13;;;7.75;;
5762;SDS011;2906;53.282;9.508;2023-04-01T05:18:46;23.65;;;7.90;;
5762;SDS011;2906;53.282;9.508;2023-04-01T05:19:48;20.35;;;7.97;;
5762;SDS011;2906;53.282;9.508;2023-04-01T05:20:50;19.23;;;7.40;;
5762;SDS011;2906;53.282;9.508;2023-04-01T05:21:52;20.27;;;7.45;;
5762;SDS011;2906;53.282;9.508;2023-04-01T05:22:55;21.27;;;6.85;;
5762;SDS011;2906;53.282;9.508;2023-04-01T05:23:57;20.45;;;7.50;;
5762;SDS011;2906;53.282;9.508;2023-04-01T05:24:59;18.60;;;7.00;;
5762;SDS011;2906;53.282;9.508;2023-04-01T05:26:02;18.15;;;7.25;;
5762;SDS011;2906;53.282;9.508;2023-04-01T05:27:03;19.80;;;6.88;;
5762;SDS011;2906;53.282;9.508;2023-04-01T05:28:06;19.88;;;7.55;;
5762;SDS011;2906;53.282;9.508;2023-04-01T05:29:08;20.63;;;6.97;;
5762;SDS011;2906;53.282;9.508;2023-04-01T05:30:11;19.20;;;6.45;;
5762;SDS011;2906;53.282;9.508;2023-04-01T05:31:13;18.80;;;7.25;;
5762;SDS011;2906;53.282;9.508;2023-04-01T05:32:15;18.92;;;6.97;;
5762;SDS011;2906;53.282;9.508;2023-04-01T05:33:16;18.63;;;6.80;;
5762;SDS011;2906;53.282;9.508;2023-04-01T05:34:19;24.23;;;8.52;;
5762;SDS011;2906;53.282;9.508;2023-04-01T05:35:20;16.75;;;6.28;;
5762;SDS011;2906;53.282;9.508;2023-04-01T05:36:22;19.85;;;6.80;;
5762;SDS011;2906;53.282;9.508;2023-04-01T05:37:24;17.48;;;6.45;;
5762;SDS011;2906;53.282;9.508;2023-04-01T05:38:26;19.25;;;6.60;;
5762;SDS011;2906;53.282;9.508;2023-04-01T05:39:27;18.02;;;6.70;;
5762;SDS011;2906;53.282;9.508;2023-04-01T05:40:30;17.15;;;6.95;;
5762;SDS011;2906;53.282;9.508;2023-04-01T05:41:31;17.30;;;5.85;;
5762;SDS011;2906;53.282;9.508;2023-04-01T05:42:36;20.55;;;6.70;;
5762;SDS011;2906;53.282;9.508;2023-04-01T05:43:38;17.08;;;5.95;;
5762;SDS011;2906;53.282;9.508;2023-04-01T05:44:41;21.92;;;5.93;;
5762;SDS011;2906;53.282;9.508;2023-04-01T05:45:43;22.77;;;6.05;;
5762;SDS011;2906;53.282;9.508;2023-04-01T05:46:45;21.73;;;6.63;;
5762;SDS011;2906;53.282;9.508;2023-04-01T05:47:46;17.70;;;5.82;;
5762;SDS011;2906;53.282;9.508;2023-04-01T05:48:48;21.05;;;6.55;;
5762;SDS011;2906;53.282;9.508;2023-04-01T05:49:50;18.15;;;6.07;;
5762;SDS011;2906;53.282;9.508;2023-04-01T05:50:52;17.52;;;5.78;;
5762;SDS011;2906;53.282;9.508;2023-04-01T05:51:53;18.27;;;5.72;;
5762;SDS011;2906;53.282;9.508;2023-04-01T05:52:55;22.10;;;6.20;;
5762;SDS011;2906;53.282;9.508;2023-04-01T05:53:57;22.23;;;5.57;;
5762;SDS011;2906;53.282;9.508;2023-04-01T05:54:59;24.98;;;5.68;;
5762;SDS011;2906;53.282;9.508;2023-04-01T05:56:02;17.80;;;5.20;;
5762;SDS011;2906;53.282;9.508;2023-04-01T05:57:04;23.27;;;5.05;;
5762;SDS011;2906;53.282;9.508;2023-04-01T05:58:05;20.30;;;5.10;;
5762;SDS011;2906;53.282;9.508;2023-04-01T05:59:08;16.27;;;5.40;;
5762;SDS011;2906;53.282;9.508;2023-04-01T06:00:12;16.23;;;5.18;;
5762;SDS011;2906;53.282;9.508;2023-04-01T06:01:14;16.35;;;5.40;;
5762;SDS011;2906;53.282;9.508;2023-04-01T06:02:16;16.40;;;5.25;;
5762;SDS011;2906;53.282;9.508;2023-04-01T06:03:18;18.13;;;4.90;;
5762;SDS011;2906;53.282;9.508;2023-04-01T06:04:20;20.73;;;5.20;;
5762;SDS011;2906;53.282;9.508;2023-04-01T06:05:23;16.65;;;5.18;;
5762;SDS011;2906;53.282;9.508;2023-04-01T06:06:27;16.00;;;5.25;;
5762;SDS011;2906;53.282;9.508;2023-04-01T06:07:28;15.70;;;4.93;;
5762;SDS011;2906;53.282;9.508;2023-04-01T06:08:31;19.88;;;5.40;;
5762;SDS011;2906;53.282;9.508;2023-04-01T06:09:32;15.10;;;4.80;;
5762;SDS011;2906;53.282;9.508;2023-04-01T06:10:36;22.50;;;5.28;;
5762;SDS011;2906;53.282;9.508;2023-04-01T06:11:41;15.68;;;4.88;;
5762;SDS011;2906;53.282;9.508;2023-04-01T06:12:50;22.63;;;5.00;;
5762;SDS011;2906;53.282;9.508;2023-04-01T06:13:57;19.73;;;4.90;;
5762;SDS011;2906;53.282;9.508;2023-04-01T06:15:07;16.52;;;4.80;;
5762;SDS011;2906;53.282;9.508;2023-04-01T06:16:15;14.98;;;4.22;;
5762;SDS011;2906;53.282;9.508;2023-04-01T06:17:23;17.50;;;5.00;;
5762;SDS011;2906;53.282;9.508;2023-04-01T06:18:35;16.40;;;4.32;;
5762;SDS011;2906;53.282;9.508;2023-04-01T06:19:40;13.50;;;4.00;;
5762;SDS011;2906;53.282;9.508;2023-04-01T06:20:43;14.50;;;3.97;;
5762;SDS011;2906;53.282;9.508;2023-04-01T06:21:56;18.60;;;4.20;;
5762;SDS011;2906;53.282;9.508;2023-04-01T06:23:08;15.70;;;4.20;;
5762;SDS011;2906;53.282;9.508;2023-04-01T06:24:16;15.68;;;4.22;;
5762;SDS011;2906;53.282;9.508;2023-04-01T06:25:25;15.18;;;4.18;;